Tiempo atmosférico en la estación meteorológica de Morón De Almazán , Soria (978 m.)



Fecha
DESCASC
Temp. máxima en grados centígrados (hora)
DESCASC
Temp. mínima en grados centígrados (hora)
DESCASC
Temp. media en grados centígrados
DESCASC
Racha de viento máxima en m/sg (hora)
DESCASC
Velocidad máxima media en intervalos de 10 minutos(hora)
DESCASC
Precipitaciones diarias en mm
DESCASC
Precipitaciones de 00:00 a 06:00 en mm
DESCASC
Precipitaciones de 06:00 a 12:00 en mm
DESCASC
Precipitaciones de 12:00 a 18:00 en mm
DESCASC
Precipitaciones de 18:00 a 24:00 en mm
DESCASC
13-10-2019 23.5 (17:00) 9.7 (23:50) 16.6 12.78 (16:40) 7.22 (15:40) 0 0 0 0 0
12-10-2019 26 (15:10) 15.5 (00:00) 20.8 16.39 (23:00) 9.72 (23:20) 0 0 0 0 0
10-10-2019 24.5 (17:10) 3.1 (00:00) 13.8 6.11 (21:50) 4.17 (21:50) 0 0 0 0 0
09-10-2019 24.6 (17:10) 5.9 (00:00) 15.3 9.44 (19:20) 5.83 (20:30) 0 0 0 0 0
08-10-2019 28.9 (16:50) 4.8 (00:00) 16.8 7.5 (18:00) 4.17 (18:00) 0 0 0 0 0
07-10-2019 26.4 (16:30) 3.1 (00:00) 14.7 9.44 (15:10) 5.83 (13:50) 0 0 0 0 0
06-10-2019 23.3 (16:00) 2.4 (00:00) 12.8 10 (17:00) 6.67 (18:10) 0 0 0 0 0
05-10-2019 26.3 (16:50) 3.4 (07:40) 14.8 7.78 (15:20) 4.44 (15:20) 0 0 0 0 0
04-10-2019 26.6 (15:50) 2.6 (00:00) 14.6 8.61 (16:40) 5.28 (17:50) 0 0 0 0 0
03-10-2019 23.3 (16:10) 0.8 (00:00) 12 11.67 (17:10) 7.78 (16:30) 0 0 0 0 0
02-10-2019 20.6 (16:30) 6.9 (00:00) 13.8 11.11 (14:40) 6.39 (19:00) 0 0 0 0 0
01-10-2019 23 (16:10) 5.1 (00:00) 14 13.06 (14:50) 8.89 (14:50) 0 0 0 0 0
30-09-2019 28.3 (16:30) 5.3 (00:00) 16.8 8.33 (18:00) 5 (16:50) 0 0 0 0 0
29-09-2019 27.9 (16:50) 4.2 (00:00) 16 9.72 (14:50) 6.39 (17:50) 0 0 0 0 0
28-09-2019 27.6 (17:10) 3.9 (00:00) 15.8 7.22 (15:30) 3.89 (15:30) 0 0 0 0 0
27-09-2019 26 (15:50) 5.1 (00:00) 15.5 10 (17:00) 5.83 (17:40) 0 0 0 0 0
26-09-2019 26.9 (16:50) 5.4 (00:00) 16.1 8.33 (16:20) 4.17 (19:00) 0 0 0 0 0
25-09-2019 20.3 (16:40) 9.7 (00:00) 15 9.72 (14:30) 7.78 (07:50) 0 0 0 0 0
24-09-2019 23.4 (15:10) 6.1 (00:00) 14.7 11.11 (18:10) 7.5 (18:10) 0 0 0 0 0
23-09-2019 22.6 (17:20) 4.2 (00:00) 13.4 6.67 (13:30) 3.89 (17:50) 0 0 0 0 0
22-09-2019 20.5 (16:10) 8.9 (00:00) 14.7 12.22 (17:30) 7.22 (15:10) 0.2 0 0.2 0 0
21-09-2019 21.1 (14:50) 12.9 (00:00) 17 11.67 (14:50) 6.94 (16:00) 0 0 0 0 0
20-09-2019 24.4 (14:40) 10.4 (00:00) 17.4 10.28 (17:10) 6.39 (17:40) 0.2 0 0 0.2 0
19-09-2019 26 (14:40) 10.6 (00:00) 18.3 6.94 (15:30) 4.44 (16:20) 0 0 0 0 0
18-09-2019 -- (--) -- (--) -- -- (--) -- (--) -- 4.8 0.2 -- 0
17-09-2019 28.9 (17:00) 10.5 (00:00) 19.7 15.28 (22:00) 8.89 (22:10) 4 0 0 0 4
16-09-2019 24.7 (14:50) 13.4 (00:00) 19.1 6.94 (19:10) 5 (17:40) 0 0 0 0 0
15-09-2019 22.5 (15:10) 12.8 (00:00) 17.7 11.11 (10:00) 7.22 (10:00) 14.2 0 0.6 1.2 12.4

Gráficas

Temp. máximas Temp. mínimas Temp. medias Precipitaciones Rachas de viento máximas Velocidades máximas media en intervalos de 10 minutos

Datos horarios

Fecha y hora oficial Temperatura (ºC) Velocidad del viento (km/h) Dirección del viento Racha (km/h) Dirección de racha Precipitación (mm) Presión (hPa) Tendencia (hPa) Humedad (%)
2019-10-14 23:00:00 6.5 13 Oeste 24 Sudoeste 0 -- -- 87
2019-10-14 22:00:00 7 11 Sudoeste 22 Oeste 0.4 -- -- 87
2019-10-14 21:00:00 6.4 16 Oeste 37 Oeste 1.8 -- -- 91
2019-10-14 20:00:00 7.3 28 Oeste 63 Oeste 0 -- -- 89
2019-10-14 19:00:00 12.6 39 Oeste 63 Oeste 0 -- -- 63
2019-10-14 18:00:00 17 34 Sudoeste 58 Sudoeste 0 -- -- 44
2019-10-14 17:00:00 18.1 35 Sudoeste 59 Sudoeste 0 -- -- 42
2019-10-14 16:00:00 18.1 33 Sudoeste 51 Sudoeste 0 -- -- 51
2019-10-14 15:00:00 16.5 27 Sudoeste 55 Sudoeste 0 -- -- 63
2019-10-14 14:00:00 18.4 24 Sudoeste 47 Sudoeste 0.2 -- -- 57
2019-10-14 13:00:00 16.9 20 Sudoeste 58 Sur 0.2 -- -- 75
2019-10-14 12:00:00 17.5 28 Sur 51 Sur 0 -- -- 61
2019-10-14 11:00:00 18.4 26 Sur 48 Sudoeste 0 -- -- 60
2019-10-14 10:00:00 17.6 11 Sur 25 Sur 0 -- -- 65
2019-10-14 09:00:00 13.3 3 Sur 18 Este 0 -- -- 70
2019-10-14 08:00:00 12.8 8 Este 15 Sudeste 0 -- -- 67
2019-10-14 07:00:00 14.1 4 Sudeste 24 Sudeste 0 -- -- 69
2019-10-14 06:00:00 14 15 Sudeste 27 Sudeste 0 -- -- 65
2019-10-14 05:00:00 13.8 8 Sur 19 Sudeste 0 -- -- 60
2019-10-14 04:00:00 15 13 Sudeste 22 Sudeste 0 -- -- 50
2019-10-14 03:00:00 14.6 10 Sudeste 21 Sudeste 0 -- -- 52
2019-10-14 02:00:00 13.6 7 Sudeste 22 Sur 0 -- -- 59
2019-10-14 01:00:00 14.6 13 Sur 24 Sur 0 -- -- 59
2019-10-14 00:00:00 9.8 7 Nordeste 10 Nordeste 0 -- -- 78
2019-10-13 23:00:00 13.1 3 Sur 17 Sur 0 -- -- 69
2019-10-13 22:00:00 15.9 10 Sudoeste 21 Sur 0 -- -- 58
2019-10-13 21:00:00 12.9 5 Este 9 Este 0 -- -- 66
2019-10-13 20:00:00 16.1 6 Sur 20 Sudoeste 0 -- -- 54
2019-10-13 19:00:00 21.3 15 Sudoeste 36 Sur 0 -- -- 38
2019-10-13 18:00:00 23 18 Sur 35 Sur 0 -- -- 37
2019-10-13 17:00:00 23.5 17 Sur 46 Sur 0 -- -- 36
2019-10-13 16:00:00 23 26 Sur 42 Sudoeste 0 -- -- 38
2019-10-13 15:00:00 22 21 Sudoeste 39 Sur 0 -- -- 48
2019-10-13 14:00:00 21.2 23 Sudoeste 40 Sudoeste 0 -- -- 54
2019-10-13 13:00:00 20.6 18 Sur 35 Sur 0 -- -- 56
2019-10-13 12:00:00 19.4 18 Sur 31 Sur 0 -- -- 62
2019-10-13 11:00:00 15.9 6 Oeste 10 Oeste 0 -- -- 76
2019-10-13 10:00:00 15.4 5 Oeste 9 Oeste 0 -- -- 76
2019-10-13 09:00:00 11.5 2 Este 10 Nordeste 0 -- -- 89
2019-10-13 08:00:00 10.8 8 Nordeste 10 Sur 0 -- -- 87
2019-10-13 07:00:00 13.2 8 Sur 23 Sur 0 -- -- 78
2019-10-13 06:00:00 12.7 9 Sudeste 17 Sudeste 0 -- -- 75
2019-10-13 05:00:00 12.8 7 Sudeste 14 Este 0 -- -- 73
2019-10-13 04:00:00 13.4 3 Sudeste 14 Sudoeste 0 -- -- 71
2019-10-13 03:00:00 15.2 8 Sur 15 Sur 0 -- -- 63
2019-10-13 02:00:00 15.1 5 Este 24 Sur 0 -- -- 68
2019-10-13 01:00:00 15.8 19 Sur 42 Sur 0 -- -- 62
2019-10-13 00:00:00 16.1 24 Sudoeste 55 Sudoeste 0 -- -- 59
2019-10-12 23:00:00 17.9 35 Sudoeste 59 Sur 0 -- -- 55
2019-10-12 22:00:00 19.8 17 Sur 31 Sur 0 -- -- 47
2019-10-12 21:00:00 19.7 6 Sur 22 Sur 0 -- -- 48
2019-10-12 20:00:00 20.9 14 Sur 32 Sur 0 -- -- 43
2019-10-12 19:00:00 22.7 18 Sur 38 Sudoeste 0 -- -- 38
2019-10-12 18:00:00 23.6 22 Sudoeste 41 Sur 0 -- -- 34
2019-10-12 17:00:00 24.6 20 Sur 40 Sur 0 -- -- 33
2019-10-12 16:00:00 25 22 Sur 40 Sudoeste 0 -- -- 33
2019-10-12 15:00:00 25.5 18 Sur 38 Sur 0 -- -- 32
2019-10-12 14:00:00 23.5 16 Sur 26 Sur 0 -- -- 41
2019-10-12 13:00:00 22.7 16 Sur 29 Sur 0 -- -- 49
2019-10-12 12:00:00 19.8 9 Sudeste 18 Sur 0 -- -- 58
2019-10-12 11:00:00 17.9 7 Sudeste 16 Este 0 -- -- 66
2019-10-12 10:00:00 17.4 3 Oeste 14 Sudeste 0 -- -- 68
2019-10-12 09:00:00 16.4 9 Nordeste 25 Sur 0 -- -- 72
2019-10-12 08:00:00 16.7 14 Sur 30 Sur 0 -- -- 71
2019-10-12 07:00:00 16.9 18 Sur 37 Sur 0 -- -- 70
2019-10-12 06:00:00 17.4 19 Sur 36 Sur 0 -- -- 68
2019-10-12 05:00:00 17.4 18 Sur 28 Sur 0 -- -- 65
2019-10-12 04:00:00 17.4 15 Sur 30 Sur 0 -- -- 61
2019-10-12 03:00:00 17.5 12 Sur 22 Sur 0 -- -- 57
2019-10-12 02:00:00 18.4 11 Sur 18 Sur 0 -- -- 52
2019-10-12 01:00:00 17.8 2 Este 13 Nordeste 0 -- -- 53
2019-10-12 00:00:00 15.5 7 Este 12 Este 0 -- -- 64
2019-10-11 23:00:00 14.9 0 Calma 9 Sur 0 -- -- 68
2019-10-11 22:00:00 17.2 5 Sur 9 Sur 0 -- -- 60
2019-10-11 21:00:00 17 4 Sur 14 Sur 0 -- -- 58
2019-10-11 20:00:00 20.5 10 Sudoeste 19 Sur 0 -- -- 49
2019-10-11 19:00:00 24.1 15 Sur 27 Sur 0 -- -- 41
2019-10-11 18:00:00 26.1 16 Sur 33 Sudoeste 0 -- -- 42
2019-10-11 17:00:00 25.9 20 Sudoeste 33 Sudoeste 0 -- -- 42
2019-10-11 16:00:00 26.9 19 Sur 35 Sur 0 -- -- 40
2019-10-11 15:00:00 27.1 14 Sudoeste 28 Sudoeste 0 -- -- 41
2019-10-11 14:00:00 25.9 16 Sudoeste 26 Sudoeste 0 -- -- 44
2019-10-11 13:00:00 24.7 8 Sur 20 Sur 0 -- -- 50
2019-10-11 12:00:00 21.9 9 Este 16 Sudeste 0 -- -- 54
2019-10-11 11:00:00 20.2 6 Sudeste 14 Sur 0 -- -- 65
2019-10-11 10:00:00 15.5 5 Este 8 Este 0 -- -- 72
2019-10-11 09:00:00 7.8 0 Calma 5 Este 0 -- -- 89
2019-10-11 08:00:00 6.5 2 Nordeste 7 Este 0 -- -- 92
2019-10-11 07:00:00 6.8 2 Este 5 Este 0 -- -- 90
2019-10-11 06:00:00 6.8 3 Nordeste 8 Este 0 -- -- 88
2019-10-11 05:00:00 7.3 2 Norte 8 Este 0 -- -- 88
2019-10-11 04:00:00 8.1 4 Este 10 Este 0 -- -- 84
2019-10-11 03:00:00 8.9 4 Este 9 Este 0 -- -- 84
2019-10-11 02:00:00 9.9 6 Este 10 Sudeste 0 -- -- 81
2019-10-11 01:00:00 10.7 6 Nordeste 18 Sudeste 0 -- -- 77
2019-10-11 00:00:00 11.7 7 Este 17 Este 0 -- -- 74
2019-10-10 23:00:00 13.7 11 Sudeste 19 Sudeste 0 -- -- 68
2019-10-10 22:00:00 14.8 12 Este 22 Sudeste 0 -- -- 66
2019-10-10 21:00:00 15.4 9 Este 19 Este 0 -- -- 66
2019-10-10 20:00:00 17.6 11 Sudeste 16 Este 0 -- -- 61
2019-10-10 19:00:00 20.7 10 Sudeste 20 Este 0 -- -- 52
2019-10-10 18:00:00 23 9 Sudeste 18 Sudeste 0 -- -- 46
2019-10-10 17:00:00 24.2 6 Este 14 Este 0 -- -- 44
2019-10-10 16:00:00 23.2 6 Este 17 Sur 0 -- -- 45
2019-10-10 15:00:00 20.8 10 Este 18 Este 0 -- -- 49
2019-10-10 14:00:00 18.5 10 Este 17 Sudeste 0 -- -- 53
2019-10-10 13:00:00 16.9 12 Sudeste 20 Este 0 -- -- 54
2019-10-10 12:00:00 13.9 11 Este 22 Este 0 -- -- 61
2019-10-10 11:00:00 12.2 9 Este 19 Este 0 -- -- 65
2019-10-10 10:00:00 11 7 Este 12 Este 0 -- -- 71
2019-10-10 09:00:00 5 2 Sudeste 4 Este 0 -- -- 95
2019-10-10 08:00:00 3.7 3 Este 4 Este 0 -- -- 94
2019-10-10 07:00:00 5.1 4 Sudeste 11 Nordeste 0 -- -- 91
2019-10-10 06:00:00 5.4 5 Este 9 Este 0 -- -- 91
2019-10-10 05:00:00 5.4 3 Nordeste 8 Este 0 -- -- 90
2019-10-10 04:00:00 5.8 5 Este 9 Este 0 -- -- 93
2019-10-10 03:00:00 6 2 Este 8 Este 0 -- -- 88
2019-10-10 02:00:00 7.6 6 Nordeste 17 Este 0 -- -- 82
2019-10-10 01:00:00 9.4 7 Nordeste 22 Nordeste 0 -- -- 76
2019-10-10 00:00:00 9.6 5 Este 18 Nordeste 0 -- -- 76
2019-10-09 23:00:00 10.8 11 Nordeste 26 Nordeste 0 -- -- 72
2019-10-09 22:00:00 12 18 Nordeste 32 Nordeste 0 -- -- 67
2019-10-09 21:00:00 13.2 19 Nordeste 31 Nordeste 0 -- -- 66
2019-10-09 20:00:00 14.9 19 Nordeste 34 Nordeste 0 -- -- 62
2019-10-09 19:00:00 20.9 13 Norte 24 Nordeste 0 -- -- 45
2019-10-09 18:00:00 24 12 Oeste 21 Oeste 0 -- -- 25
2019-10-09 17:00:00 24 13 Oeste 25 Oeste 0 -- -- 29
2019-10-09 16:00:00 24.1 13 Oeste 27 Oeste 0 -- -- 34
2019-10-09 15:00:00 23.3 13 Oeste 25 Oeste 0 -- -- 41
2019-10-09 14:00:00 22.3 13 Oeste 26 Oeste 0 -- -- 45
2019-10-09 13:00:00 21.3 15 Oeste 25 Oeste 0 -- -- 52
2019-10-09 12:00:00 20.3 13 Oeste 23 Oeste 0 -- -- 58
2019-10-09 11:00:00 17.1 11 Oeste 18 Oeste 0 -- -- 66
2019-10-09 10:00:00 13.5 3 Oeste 6 Oeste 0 -- -- 69
2019-10-09 09:00:00 7.4 3 Nordeste 4 Nordeste 0 -- -- 88
2019-10-09 08:00:00 6 0 Calma 4 Sudoeste 0 -- -- 88
2019-10-09 07:00:00 7.4 0 Calma 8 Este 0 -- -- 83
2019-10-09 06:00:00 7.4 4 Nordeste 6 Nordeste 0 -- -- 84
2019-10-09 05:00:00 7.4 3 Nordeste 6 Nordeste 0 -- -- 82
2019-10-09 04:00:00 7.9 3 Este 6 Nordeste 0 -- -- 78
2019-10-09 03:00:00 8.6 4 Este 7 Sur 0 -- -- 77
2019-10-09 02:00:00 9.7 2 Este 6 Este 0 -- -- 75
2019-10-09 01:00:00 10.6 2 Este 5 Este 0 -- -- 71
2019-10-09 00:00:00 12.7 0 Calma 10 Noroeste 0 -- -- 64
2019-10-08 23:00:00 16.6 3 Noroeste 11 Sur 0 -- -- 54
2019-10-08 22:00:00 16.7 0 Calma 13 Sudoeste 0 -- -- 53
2019-10-08 21:00:00 19.6 11 Sudoeste 18 Sudoeste 0 -- -- 46
2019-10-08 20:00:00 22 11 Sudoeste 21 Sudoeste 0 -- -- 41
2019-10-08 19:00:00 26.2 11 Sudoeste 22 Sudoeste 0 -- -- 33
2019-10-08 18:00:00 27.8 15 Sur 27 Sur 0 -- -- 31
2019-10-08 17:00:00 28.8 11 Sudoeste 23 Sur 0 -- -- 28
2019-10-08 16:00:00 28.2 11 Sudoeste 25 Oeste 0 -- -- 29
2019-10-08 15:00:00 27.3 12 Sudoeste 22 Sur 0 -- -- 29
2019-10-08 14:00:00 27.3 10 Sudoeste 25 Oeste 0 -- -- 30
2019-10-08 13:00:00 26.5 4 Oeste 13 Sudoeste 0 -- -- 32
2019-10-08 12:00:00 24.3 3 Noroeste 8 Oeste 0 -- -- 34
2019-10-08 11:00:00 20.6 0 Calma 4 Norte 0 -- -- 39
2019-10-08 10:00:00 14.2 0 Calma 5 Este 0 -- -- 58
2019-10-08 09:00:00 6.5 3 Este 4 Este 0 -- -- 83
2019-10-08 08:00:00 5.5 0 Calma 4 Sudeste 0 -- -- 81
2019-10-08 07:00:00 5.5 0 Calma 6 Este 0 -- -- 81
2019-10-08 06:00:00 6.3 3 Este 5 Nordeste 0 -- -- 79
2019-10-08 05:00:00 6.5 5 Este 8 Este 0 -- -- 78
2019-10-08 04:00:00 6.8 0 Calma 5 Este 0 -- -- 77
2019-10-08 03:00:00 7.8 0 Calma 9 Este 0 -- -- 74
2019-10-08 02:00:00 9.2 2 Sudeste 6 Este 0 -- -- 68
2019-10-08 01:00:00 9.2 3 Oeste 6 Norte 0 -- -- 67
2019-10-08 00:00:00 11.2 3 Norte 7 Noroeste 0 -- -- 59
2019-10-07 23:00:00 13.8 0 Calma 9 Sur 0 -- -- 52
2019-10-07 22:00:00 16.7 6 Nordeste 24 Norte 0 -- -- 44
2019-10-07 21:00:00 18.2 16 Norte 24 Norte 0 -- -- 41
2019-10-07 20:00:00 19.9 12 Norte 21 Noroeste 0 -- -- 41
2019-10-07 19:00:00 24.1 12 Oeste 22 Oeste 0 -- -- 28
2019-10-07 18:00:00 25.6 17 Oeste 27 Norte 0 -- -- 26
2019-10-07 17:00:00 25.8 15 Norte 30 Noroeste 0 -- -- 34
2019-10-07 16:00:00 25.1 18 Noroeste 34 Noroeste 0 -- -- 32
2019-10-07 15:00:00 24.2 19 Norte 32 Noroeste 0 -- -- 32
2019-10-07 14:00:00 22.8 18 Noroeste 31 Oeste 0 -- -- 31
2019-10-07 13:00:00 19.1 18 Oeste 27 Oeste 0 -- -- 35
2019-10-07 12:00:00 18.8 18 Oeste 28 Oeste 0 -- -- 38
2019-10-07 11:00:00 14.5 17 Oeste 24 Oeste 0 -- -- 60
2019-10-07 10:00:00 10.9 7 Oeste 13 Oeste 0 -- -- 83
2019-10-07 09:00:00 5 0 Calma 5 Nordeste 0 -- -- 99
2019-10-07 08:00:00 3.2 3 Este 4 Este 0 -- -- 97
2019-10-07 07:00:00 3.8 2 Sur 4 Sur 0 -- -- 96
2019-10-07 06:00:00 4.2 2 Este 4 Nordeste 0 -- -- 96
2019-10-07 05:00:00 5.4 0 Calma 5 Este 0 -- -- 95
2019-10-07 04:00:00 6.2 0 Calma 8 Este 0 -- -- 95
2019-10-07 03:00:00 6.6 0 Calma 5 Nordeste 0 -- -- 93
2019-10-07 02:00:00 7.1 0 Calma 4 Sudeste 0 -- -- 91
2019-10-07 01:00:00 8.7 0 Calma 5 Sudeste 0 -- -- 90
2019-10-07 00:00:00 11.1 3 Sur 8 Norte 0 -- -- 86
2019-10-06 23:00:00 11.8 3 Este 21 Norte 0 -- -- 83
2019-10-06 22:00:00 13 8 Nordeste 21 Nordeste 0 -- -- 77
2019-10-06 21:00:00 14.3 13 Nordeste 31 Norte 0 -- -- 70
2019-10-06 20:00:00 17.9 13 Oeste 32 Oeste 0 -- -- 42
2019-10-06 19:00:00 21.7 21 Oeste 35 Oeste 0 -- -- 31
2019-10-06 18:00:00 22.6 23 Oeste 35 Noroeste 0 -- -- 33
2019-10-06 17:00:00 22.8 23 Oeste 36 Oeste 0 -- -- 33
2019-10-06 16:00:00 23.3 21 Oeste 31 Oeste 0 -- -- 35
2019-10-06 15:00:00 22.7 15 Oeste 30 Oeste 0 -- -- 39
2019-10-06 14:00:00 21.6 13 Oeste 26 Oeste 0 -- -- 46
2019-10-06 13:00:00 19.4 12 Oeste 24 Oeste 0 -- -- 53
2019-10-06 12:00:00 18.1 13 Oeste 27 Noroeste 0 -- -- 55
2019-10-06 11:00:00 15.4 15 Noroeste 22 Noroeste 0 -- -- 62
2019-10-06 10:00:00 11.2 10 Oeste 14 Oeste 0 -- -- 74
2019-10-06 09:00:00 5.3 0 Calma 5 Noroeste 0 -- -- 96
2019-10-06 08:00:00 2.4 5 Oeste 6 Oeste 0 -- -- 94
2019-10-06 07:00:00 3.1 0 Calma 4 Sudeste 0 -- -- 90
2019-10-06 06:00:00 3.8 0 Calma 6 Este 0 -- -- 90
2019-10-06 05:00:00 4.4 0 Calma 6 Sur 0 -- -- 87
2019-10-06 04:00:00 5.3 3 Este 6 Este 0 -- -- 85
2019-10-06 03:00:00 6 5 Este 6 Este 0 -- -- 85
2019-10-06 02:00:00 6.2 4 Este 5 Este 0 -- -- 82
2019-10-06 01:00:00 7.4 3 Este 4 Este 0 -- -- 80
2019-10-06 00:00:00 8.3 3 Este 6 Nordeste 0 -- -- 75
2019-10-05 23:00:00 9.5 5 Este 6 Este 0 -- -- 69
2019-10-05 22:00:00 12 2 Este 4 Este 0 -- -- 62
2019-10-05 21:00:00 14.6 0 Calma 6 Oeste 0 -- -- 57
2019-10-05 20:00:00 19 6 Noroeste 19 Oeste 0 -- -- 46
2019-10-05 19:00:00 24.1 13 Oeste 23 Noroeste 0 -- -- 39
2019-10-05 18:00:00 25.5 13 Oeste 24 Oeste 0 -- -- 34
2019-10-05 17:00:00 26.1 13 Oeste 24 Oeste 0 -- -- 23
2019-10-05 16:00:00 25.5 12 Oeste 28 Noroeste 0 -- -- 28
2019-10-05 15:00:00 24.8 14 Oeste 24 Oeste 0 -- -- 33
2019-10-05 14:00:00 23.4 9 Sudoeste 21 Oeste 0 -- -- 39
2019-10-05 13:00:00 21.5 15 Oeste 23 Oeste 0 -- -- 49
2019-10-05 12:00:00 18.6 7 Oeste 12 Sudoeste 0 -- -- 60
2019-10-05 11:00:00 14.7 4 Oeste 8 Oeste 0 -- -- 71
2019-10-05 10:00:00 9.5 4 Oeste 6 Oeste 0 -- -- 87
2019-10-05 09:00:00 4.9 0 Calma 4 Nordeste 0 -- -- 97
2019-10-05 08:00:00 3.4 4 Nordeste 6 Nordeste 0 -- -- 96
2019-10-05 07:00:00 3.9 4 Este 6 Este 0 -- -- 95
2019-10-05 06:00:00 5.2 2 Este 8 Este 0 -- -- 94
2019-10-05 05:00:00 5.2 6 Este 9 Nordeste 0 -- -- 93
2019-10-05 04:00:00 5.9 2 Este 6 Este 0 -- -- 92
2019-10-05 03:00:00 6.5 0 Calma 6 Nordeste 0 -- -- 89
2019-10-05 02:00:00 7.2 3 Este 6 Nordeste 0 -- -- 88
2019-10-05 01:00:00 8.4 2 Sudeste 4 Sur 0 -- -- 83
2019-10-05 00:00:00 9.9 3 Este 17 Nordeste 0 -- -- 79
2019-10-04 23:00:00 10.2 2 Este 6 Este 0 -- -- 73
2019-10-04 22:00:00 12.3 3 Este 6 Este 0 -- -- 68
2019-10-04 21:00:00 14.5 0 Calma 5 Noroeste 0 -- -- 63
2019-10-04 20:00:00 19.1 4 Noroeste 22 Oeste 0 -- -- 50
2019-10-04 19:00:00 23.3 15 Oeste 26 Oeste 0 -- -- 42
2019-10-04 18:00:00 24.5 18 Oeste 31 Oeste 0 -- -- 41
2019-10-04 17:00:00 25.3 16 Oeste 31 Oeste 0 -- -- 36
2019-10-04 16:00:00 26.1 14 Oeste 24 Oeste 0 -- -- 32
2019-10-04 15:00:00 25.3 10 Noroeste 22 Sudoeste 0 -- -- 32
2019-10-04 14:00:00 24.5 11 Oeste 20 Oeste 0 -- -- 32
2019-10-04 13:00:00 22.5 6 Oeste 16 Oeste 0 -- -- 37
2019-10-04 12:00:00 19.5 8 Oeste 19 Oeste 0 -- -- 44
2019-10-04 11:00:00 16.8 5 Oeste 9 Oeste 0 -- -- 49
2019-10-04 10:00:00 11.1 3 Noroeste 4 Norte 0 -- -- 66
2019-10-04 09:00:00 4.6 0 Calma 4 Este 0 -- -- 90
2019-10-04 08:00:00 2.8 0 Calma 6 Nordeste 0 -- -- 92
2019-10-04 07:00:00 3.1 2 Este 7 Este 0 -- -- 90
2019-10-04 06:00:00 3.3 3 Este 6 Este 0 -- -- 89
2019-10-04 05:00:00 3.9 3 Este 9 Este 0 -- -- 87
2019-10-04 04:00:00 4.9 3 Sudeste 6 Este 0 -- -- 81
2019-10-04 03:00:00 5.5 5 Este 8 Nordeste 0 -- -- 81
2019-10-04 02:00:00 6.5 3 Este 6 Sudeste 0 -- -- 77
2019-10-04 01:00:00 6.8 0 Calma 10 Este 0 -- -- 74
2019-10-04 00:00:00 7.2 3 Este 7 Este 0 -- -- 73
2019-10-03 23:00:00 8.5 5 Este 6 Este 0 -- -- 68
2019-10-03 22:00:00 10.7 3 Este 5 Este 0 -- -- 61
2019-10-03 21:00:00 13.7 0 Calma 17 Oeste 0 -- -- 51
2019-10-03 20:00:00 17.8 12 Oeste 27 Oeste 0 -- -- 42
2019-10-03 19:00:00 21.1 19 Oeste 34 Oeste 0 -- -- 35
2019-10-03 18:00:00 22.6 25 Oeste 42 Oeste 0 -- -- 32
2019-10-03 17:00:00 23.1 27 Oeste 42 Oeste 0 -- -- 32
2019-10-03 16:00:00 23 23 Oeste 40 Oeste 0 -- -- 34
2019-10-03 15:00:00 22.3 24 Oeste 40 Oeste 0 -- -- 36
2019-10-03 14:00:00 20.9 25 Oeste 40 Oeste 0 -- -- 40
2019-10-03 13:00:00 19.1 23 Oeste 37 Oeste 0 -- -- 46
2019-10-03 12:00:00 17.2 24 Oeste 36 Oeste 0 -- -- 51
2019-10-03 11:00:00 13.5 18 Oeste 29 Oeste 0 -- -- 65
2019-10-03 10:00:00 8.4 12 Oeste 17 Oeste 0 -- -- 82
2019-10-03 09:00:00 2.2 0 Calma 4 Noroeste 0 -- -- 98
2019-10-03 08:00:00 1.1 2 Noroeste 4 Noroeste 0 -- -- 97
2019-10-03 07:00:00 1.4 3 Oeste 4 Oeste 0 -- -- 96
2019-10-03 06:00:00 1.9 3 Noroeste 4 Oeste 0 -- -- 94
2019-10-03 05:00:00 3.2 0 Calma 4 Este 0 -- -- 94
2019-10-03 04:00:00 3.9 0 Calma 3 Noroeste 0 -- -- 92
2019-10-03 03:00:00 5.2 2 Sudeste 5 Sur 0 -- -- 89
2019-10-03 02:00:00 6.8 2 Oeste 8 Noroeste 0 -- -- 89
2019-10-03 01:00:00 7.6 5 Noroeste 10 Noroeste 0 -- -- 81
2019-10-03 00:00:00 9.2 6 Noroeste 12 Noroeste 0 -- -- 75
2019-10-02 23:00:00 10.5 3 Noroeste 10 Oeste 0 -- -- 72
2019-10-02 22:00:00 10.7 5 Noroeste 12 Norte 0 -- -- 67
2019-10-02 21:00:00 12.8 10 Norte 24 Norte 0 -- -- 58
2019-10-02 20:00:00 15.1 19 Norte 30 Norte 0 -- -- 50
2019-10-02 19:00:00 18 23 Norte 31 Norte 0 -- -- 43
2019-10-02 18:00:00 19.9 17 Norte 26 Nordeste 0 -- -- 39
2019-10-02 17:00:00 20.1 15 Norte 27 Noroeste 0 -- -- 37
2019-10-02 16:00:00 19.7 13 Norte 32 Noroeste 0 -- -- 40
2019-10-02 15:00:00 19.7 15 Oeste 40 Norte 0 -- -- 40
2019-10-02 14:00:00 17.4 17 Noroeste 34 Norte 0 -- -- 47
2019-10-02 13:00:00 17.1 13 Noroeste 30 Oeste 0 -- -- 52
2019-10-02 12:00:00 15.8 15 Oeste 31 Oeste 0 -- -- 58
2019-10-02 11:00:00 13.5 21 Oeste 31 Oeste 0 -- -- 68
2019-10-02 10:00:00 11.7 19 Oeste 29 Oeste 0 -- -- 75
2019-10-02 09:00:00 9.9 9 Oeste 13 Oeste 0 -- -- 82
2019-10-02 08:00:00 9.5 6 Oeste 18 Noroeste 0 -- -- 82
2019-10-02 07:00:00 9.4 7 Oeste 17 Noroeste 0 -- -- 83
2019-10-02 06:00:00 8.3 4 Oeste 8 Noroeste 0 -- -- 86
2019-10-02 05:00:00 7.8 4 Noroeste 9 Oeste 0 -- -- 83
2019-10-02 04:00:00 8.9 0 Calma 18 Oeste 0 -- -- 79
2019-10-02 03:00:00 10.8 9 Oeste 20 Oeste 0 -- -- 72
2019-10-02 02:00:00 12 13 Oeste 21 Oeste 0 -- -- 67
2019-10-02 01:00:00 11.8 12 Oeste 21 Oeste 0 -- -- 68
2019-10-02 00:00:00 9.9 7 Oeste 11 Oeste 0 -- -- 74
2019-10-01 23:00:00 10.6 4 Noroeste 8 Oeste 0 -- -- 73
2019-10-01 22:00:00 12.3 8 Oeste 13 Oeste 0 -- -- 64
2019-10-01 21:00:00 15.1 9 Oeste 20 Oeste 0 -- -- 56
2019-10-01 20:00:00 18.4 17 Oeste 35 Oeste 0 -- -- 47
2019-10-01 19:00:00 21.3 22 Oeste 45 Oeste 0 -- -- 44
2019-10-01 18:00:00 22.2 27 Oeste 40 Oeste 0 -- -- 44
2019-10-01 17:00:00 22.4 30 Oeste 45 Oeste 0 -- -- 40
2019-10-01 16:00:00 22.8 28 Oeste 42 Noroeste 0 -- -- 45
2019-10-01 15:00:00 21.6 27 Oeste 47 Oeste 0 -- -- 48
2019-10-01 14:00:00 22.7 23 Oeste 42 Oeste 0 -- -- 48
2019-10-01 13:00:00 21.9 27 Oeste 42 Oeste 0 -- -- 52
2019-10-01 12:00:00 20.1 22 Oeste 34 Noroeste 0 -- -- 51
2019-10-01 11:00:00 17.7 11 Oeste 17 Oeste 0 -- -- 48
2019-10-01 10:00:00 11.4 0 Calma 9 Oeste 0 -- -- 63
2019-10-01 09:00:00 7.7 0 Calma 4 Este 0 -- -- 75
2019-10-01 08:00:00 5.6 4 Nordeste 6 Este 0 -- -- 80
2019-10-01 07:00:00 5.3 3 Este 6 Este 0 -- -- 78
2019-10-01 06:00:00 5.7 3 Este 6 Este 0 -- -- 76
2019-10-01 05:00:00 6 2 Este 5 Este 0 -- -- 75
2019-10-01 04:00:00 7 4 Este 7 Este 0 -- -- 70
2019-10-01 03:00:00 7.4 3 Este 9 Nordeste 0 -- -- 70
2019-10-01 02:00:00 8.3 4 Este 6 Nordeste 0 -- -- 64
2019-10-01 01:00:00 9 3 Este 8 Nordeste 0 -- -- 60
2019-10-01 00:00:00 10 7 Nordeste 8 Nordeste 0 -- -- 56
2019-09-30 23:00:00 14 3 Norte 11 Noroeste 0 -- -- 43
2019-09-30 22:00:00 17 4 Oeste 16 Sudoeste 0 -- -- 35
2019-09-30 21:00:00 18.1 8 Sudoeste 15 Sudoeste 0 -- -- 33
2019-09-30 20:00:00 20.6 7 Sudoeste 26 Sur 0 -- -- 28
2019-09-30 19:00:00 25.6 16 Sur 28 Sur 0 -- -- 23
2019-09-30 18:00:00 27.4 16 Sudoeste 30 Sudoeste 0 -- -- 22
2019-09-30 17:00:00 28 16 Sudoeste 29 Sur 0 -- -- 21
2019-09-30 16:00:00 28 15 Sudoeste 28 Sudoeste 0 -- -- 20
2019-09-30 15:00:00 27.8 16 Oeste 28 Oeste 0 -- -- 23
2019-09-30 14:00:00 26.4 8 Sudeste 16 Sudeste 0 -- -- 35
2019-09-30 13:00:00 24.2 4 Norte 13 Oeste 0 -- -- 42
2019-09-30 12:00:00 21.6 7 Oeste 15 Oeste 0 -- -- 50
2019-09-30 11:00:00 18.5 9 Oeste 13 Oeste 0 -- -- 54
2019-09-30 10:00:00 15 3 Oeste 6 Oeste 0 -- -- 55
2019-09-30 09:00:00 7.6 0 Calma 4 Este 0 -- -- 80
2019-09-30 08:00:00 5.5 4 Este 5 Este 0 -- -- 83
2019-09-30 07:00:00 5.8 2 Sudeste 5 Este 0 -- -- 80
2019-09-30 06:00:00 6.1 4 Este 7 Este 0 -- -- 78
2019-09-30 05:00:00 5.8 4 Este 6 Este 0 -- -- 79
2019-09-30 04:00:00 6.1 4 Este 5 Este 0 -- -- 76
2019-09-30 03:00:00 6.5 3 Este 5 Este 0 -- -- 75
2019-09-30 02:00:00 7 3 Este 5 Este 0 -- -- 72
2019-09-30 01:00:00 8.1 3 Este 8 Nordeste 0 -- -- 67
2019-09-30 00:00:00 8.9 5 Este 6 Este 0 -- -- 63
2019-09-29 23:00:00 10.3 4 Este 7 Nordeste 0 -- -- 58
2019-09-29 22:00:00 11.5 5 Este 8 Nordeste 0 -- -- 52
2019-09-29 21:00:00 14.4 4 Este 5 Este 0 -- -- 43
2019-09-29 20:00:00 20.6 3 Oeste 23 Oeste 0 -- -- 31
2019-09-29 19:00:00 25.9 14 Oeste 31 Oeste 0 -- -- 24
2019-09-29 18:00:00 27.1 20 Oeste 33 Oeste 0 -- -- 23
2019-09-29 17:00:00 27.4 22 Oeste 35 Oeste 0 -- -- 24
2019-09-29 16:00:00 27.6 21 Oeste 33 Oeste 0 -- -- 24
2019-09-29 15:00:00 26.6 18 Oeste 35 Oeste 0 -- -- 27
2019-09-29 14:00:00 26.4 17 Oeste 28 Oeste 0 -- -- 27
2019-09-29 13:00:00 24.6 14 Oeste 22 Oeste 0 -- -- 30
2019-09-29 12:00:00 23.6 6 Oeste 13 Noroeste 0 -- -- 34
2019-09-29 11:00:00 19.7 6 Oeste 10 Oeste 0 -- -- 41
2019-09-29 10:00:00 14.9 3 Nordeste 6 Sudeste 0 -- -- 51
2019-09-29 09:00:00 6.6 0 Calma 5 Este 0 -- -- 79
2019-09-29 08:00:00 4.5 4 Este 8 Nordeste 0 -- -- 84
2019-09-29 07:00:00 4.5 4 Este 7 Este 0 -- -- 83
2019-09-29 06:00:00 5.1 4 Este 5 Este 0 -- -- 81
2019-09-29 05:00:00 5.7 3 Este 5 Este 0 -- -- 79
2019-09-29 04:00:00 6.3 2 Sudeste 8 Nordeste 0 -- -- 78
2019-09-29 03:00:00 7 4 Este 8 Este 0 -- -- 74
2019-09-29 02:00:00 7.8 2 Nordeste 6 Nordeste 0 -- -- 70
2019-09-29 01:00:00 8.6 5 Nordeste 7 Nordeste 0 -- -- 68
2019-09-29 00:00:00 9.5 5 Nordeste 8 Nordeste 0 -- -- 64
2019-09-28 23:00:00 11.4 3 Nordeste 6 Nordeste 0 -- -- 56
2019-09-28 22:00:00 13.5 2 Norte 13 Sudoeste 0 -- -- 49
2019-09-28 21:00:00 19.6 12 Sudoeste 18 Sudoeste 0 -- -- 33
2019-09-28 20:00:00 21 8 Sudoeste 21 Sur 0 -- -- 33
2019-09-28 19:00:00 25.8 11 Sudoeste 25 Sur 0 -- -- 26
2019-09-28 18:00:00 27.3 11 Sudoeste 23 Sudoeste 0 -- -- 24
2019-09-28 17:00:00 27.2 13 Sudoeste 24 Sudoeste 0 -- -- 23
2019-09-28 16:00:00 27 13 Sudoeste 26 Sur 0 -- -- 24
2019-09-28 15:00:00 26.7 4 Sudoeste 14 Este 0 -- -- 35
2019-09-28 14:00:00 24.9 8 Sudeste 15 Sudeste 0 -- -- 38
2019-09-28 13:00:00 23.1 8 Sudeste 15 Sur 0 -- -- 43
2019-09-28 12:00:00 21.1 4 Sudoeste 8 Oeste 0 -- -- 49
2019-09-28 11:00:00 18.4 3 Oeste 6 Oeste 0 -- -- 55
2019-09-28 10:00:00 13.8 0 Calma 4 Este 0 -- -- 64
2019-09-28 09:00:00 6.4 2 Este 4 Este 0 -- -- 86
2019-09-28 08:00:00 3.9 3 Este 4 Este 0 -- -- 89
2019-09-28 07:00:00 4.5 3 Este 5 Este 0 -- -- 87
2019-09-28 06:00:00 4.8 0 Calma 4 Este 0 -- -- 84
2019-09-28 05:00:00 5.3 3 Sudeste 7 Nordeste 0 -- -- 83
2019-09-28 04:00:00 5.6 3 Este 6 Nordeste 0 -- -- 79
2019-09-28 03:00:00 5.8 0 Calma 7 Este 0 -- -- 80
2019-09-28 02:00:00 6.2 3 Nordeste 8 Este 0 -- -- 76
2019-09-28 01:00:00 7.3 3 Este 5 Nordeste 0 -- -- 69
2019-09-28 00:00:00 8 4 Este 6 Nordeste 0 -- -- 69
2019-09-27 23:00:00 9.5 3 Este 5 Este 0 -- -- 61
2019-09-27 22:00:00 11.4 3 Este 4 Nordeste 0 -- -- 55
2019-09-27 21:00:00 14.7 2 Noroeste 8 Noroeste 0 -- -- 46
2019-09-27 20:00:00 19.6 7 Oeste 21 Oeste 0 -- -- 33
2019-09-27 19:00:00 23.5 19 Oeste 28 Oeste 0 -- -- 28
2019-09-27 18:00:00 24.7 20 Oeste 32 Oeste 0 -- -- 28
2019-09-27 17:00:00 25.7 20 Oeste 36 Noroeste 0 -- -- 29
2019-09-27 16:00:00 25.7 16 Oeste 29 Oeste 0 -- -- 29
2019-09-27 15:00:00 25.4 9 Oeste 26 Oeste 0 -- -- 30
2019-09-27 14:00:00 23.9 17 Oeste 27 Noroeste 0 -- -- 31
2019-09-27 13:00:00 22.1 15 Oeste 24 Oeste 0 -- -- 39
2019-09-27 12:00:00 19.9 14 Oeste 27 Oeste 0 -- -- 45
2019-09-27 11:00:00 17.1 15 Noroeste 21 Noroeste 0 -- -- 49
2019-09-27 10:00:00 14.4 9 Oeste 13 Oeste 0 -- -- 58
2019-09-27 09:00:00 8.1 5 Nordeste 9 Norte 0 -- -- 92
2019-09-27 08:00:00 5.1 4 Este 5 Este 0 -- -- 92
2019-09-27 07:00:00 5.7 0 Calma 3 Nordeste 0 -- -- 91
2019-09-27 06:00:00 6.1 0 Calma 4 Este 0 -- -- 90
2019-09-27 05:00:00 6.8 0 Calma 3 Este 0 -- -- 89
2019-09-27 04:00:00 7.9 2 Este 4 Este 0 -- -- 87
2019-09-27 03:00:00 8.2 4 Este 6 Este 0 -- -- 87
2019-09-27 02:00:00 8.8 2 Este 5 Este 0 -- -- 85
2019-09-27 01:00:00 9.8 4 Este 5 Este 0 -- -- 82
2019-09-27 00:00:00 10.8 4 Este 6 Nordeste 0 -- -- 78
2019-09-26 23:00:00 12.3 5 Nordeste 8 Nordeste 0 -- -- 72
2019-09-26 22:00:00 14.8 3 Este 7 Oeste 0 -- -- 63
2019-09-26 21:00:00 18.8 6 Oeste 17 Sudoeste 0 -- -- 51
2019-09-26 20:00:00 21.9 10 Sudoeste 21 Sudoeste 0 -- -- 42
2019-09-26 19:00:00 25.1 15 Sudoeste 26 Sudoeste 0 -- -- 37
2019-09-26 18:00:00 26.3 14 Sudoeste 24 Oeste 0 -- -- 36
2019-09-26 17:00:00 26.6 13 Sudoeste 30 Sudoeste 0 -- -- 34
2019-09-26 16:00:00 26.4 12 Oeste 28 Oeste 0 -- -- 34
2019-09-26 15:00:00 25.3 13 Sudoeste 25 Sudoeste 0 -- -- 35
2019-09-26 14:00:00 24.5 12 Sudoeste 23 Sur 0 -- -- 36
2019-09-26 13:00:00 23.4 10 Sudoeste 18 Sudoeste 0 -- -- 40
2019-09-26 12:00:00 21 6 Oeste 12 Sudoeste 0 -- -- 47
2019-09-26 11:00:00 17.4 7 Oeste 12 Oeste 0 -- -- 55
2019-09-26 10:00:00 14.6 0 Calma 6 Este 0 -- -- 67
2019-09-26 09:00:00 7.9 0 Calma 5 Nordeste 0 -- -- 96
2019-09-26 08:00:00 5.4 3 Este 5 Este 0 -- -- 96
2019-09-26 07:00:00 5.7 3 Sur 5 Sur 0 -- -- 95
2019-09-26 06:00:00 6 3 Este 4 Este 0 -- -- 95
2019-09-26 05:00:00 6.5 0 Calma 3 Este 0 -- -- 93
2019-09-26 04:00:00 6.9 3 Este 4 Este 0 -- -- 92
2019-09-26 03:00:00 7.6 3 Nordeste 7 Nordeste 0 -- -- 90
2019-09-26 02:00:00 8.3 2 Este 8 Este 0 -- -- 88
2019-09-26 01:00:00 8.7 3 Sudoeste 4 Sudoeste 0 -- -- 88
2019-09-26 00:00:00 9.7 4 Oeste 5 Noroeste 0 -- -- 82
2019-09-25 23:00:00 10.9 4 Oeste 8 Oeste 0 -- -- 76
2019-09-25 22:00:00 13.5 5 Sudoeste 13 Sudoeste 0 -- -- 67
2019-09-25 21:00:00 14 4 Oeste 12 Oeste 0 -- -- 65
2019-09-25 20:00:00 15.9 11 Oeste 23 Oeste 0 -- -- 58
2019-09-25 19:00:00 17.5 18 Oeste 28 Oeste 0 -- -- 52
2019-09-25 18:00:00 18.9 19 Oeste 32 Oeste 0 -- -- 47
2019-09-25 17:00:00 19.7 19 Oeste 32 Oeste 0 -- -- 45
2019-09-25 16:00:00 20 18 Oeste 30 Oeste 0 -- -- 45
2019-09-25 15:00:00 19.1 16 Oeste 35 Oeste 0 -- -- 48
2019-09-25 14:00:00 18.2 15 Oeste 30 Noroeste 0 -- -- 51
2019-09-25 13:00:00 17.3 18 Oeste 28 Oeste 0 -- -- 53
2019-09-25 12:00:00 15.6 18 Oeste 29 Noroeste 0 -- -- 59
2019-09-25 11:00:00 13.9 16 Oeste 25 Oeste 0 -- -- 68
2019-09-25 10:00:00 12.2 18 Oeste 28 Noroeste 0 -- -- 76
2019-09-25 09:00:00 11 17 Oeste 33 Noroeste 0 -- -- 83
2019-09-25 08:00:00 10.4 26 Noroeste 34 Noroeste 0 -- -- 84
2019-09-25 07:00:00 11 15 Oeste 25 Oeste 0 -- -- 82
2019-09-25 06:00:00 11.9 12 Oeste 30 Oeste 0 -- -- 81
2019-09-25 05:00:00 12.6 19 Oeste 29 Oeste 0 -- -- 79
2019-09-25 04:00:00 12.3 13 Oeste 22 Noroeste 0 -- -- 85
2019-09-25 03:00:00 13.1 12 Oeste 20 Oeste 0 -- -- 89
2019-09-25 02:00:00 14.4 13 Oeste 22 Oeste 0 -- -- 85
2019-09-25 01:00:00 15.3 12 Oeste 23 Sudoeste 0 -- -- 84
2019-09-25 00:00:00 14.2 0 Calma 15 Oeste 0 -- -- 86
2019-09-24 23:00:00 15.3 4 Sudoeste 19 Oeste 0 -- -- 83
2019-09-24 22:00:00 15.9 13 Oeste 40 Oeste 0 -- -- 84
2019-09-24 21:00:00 17.6 8 Oeste 18 Oeste 0 -- -- 76
2019-09-24 20:00:00 18.3 12 Oeste 21 Oeste 0 -- -- 73
2019-09-24 19:00:00 18.5 18 Oeste 40 Oeste 0 -- -- 71
2019-09-24 18:00:00 20.8 23 Oeste 36 Oeste 0 -- -- 60
2019-09-24 17:00:00 21.5 22 Oeste 35 Oeste 0 -- -- 58
2019-09-24 16:00:00 22.4 21 Oeste 39 Sudoeste 0 -- -- 55
2019-09-24 15:00:00 23.2 26 Oeste 40 Oeste 0 -- -- 50
2019-09-24 14:00:00 22.6 22 Oeste 39 Oeste 0 -- -- 46
2019-09-24 13:00:00 21 24 Oeste 38 Oeste 0 -- -- 48
2019-09-24 12:00:00 19.1 16 Oeste 26 Noroeste 0 -- -- 54
2019-09-24 11:00:00 16.8 10 Oeste 17 Oeste 0 -- -- 61
2019-09-24 10:00:00 13.7 6 Oeste 9 Noroeste 0 -- -- 75
2019-09-24 09:00:00 8.4 2 Este 4 Sudeste 0 -- -- 96
2019-09-24 08:00:00 6.4 0 Calma 4 Sudeste 0 -- -- 94
2019-09-24 07:00:00 7.5 3 Oeste 8 Noroeste 0 -- -- 92
2019-09-24 06:00:00 8.3 6 Oeste 10 Oeste 0 -- -- 90
2019-09-24 05:00:00 8.1 0 Calma 5 Noroeste 0 -- -- 92
2019-09-24 04:00:00 8.8 3 Nordeste 5 Este 0 -- -- 92
2019-09-24 03:00:00 10 2 Nordeste 9 Noroeste 0 -- -- 87
2019-09-24 02:00:00 11 0 Calma 11 Oeste 0 -- -- 83
2019-09-24 01:00:00 11.9 0 Calma 12 Oeste 0 -- -- 80
2019-09-24 00:00:00 13.6 4 Noroeste 16 Sudoeste 0 -- -- 73
2019-09-23 23:00:00 14.2 13 Sudoeste 19 Sur 0 -- -- 72
2019-09-23 22:00:00 14.5 12 Sudoeste 19 Sur 0 -- -- 70
2019-09-23 21:00:00 15.6 12 Sudoeste 17 Sudoeste 0 -- -- 64
2019-09-23 20:00:00 18.3 13 Sudoeste 22 Sudoeste 0 -- -- 54
2019-09-23 19:00:00 20.6 9 Sudoeste 21 Oeste 0 -- -- 48
2019-09-23 18:00:00 21.6 13 Oeste 22 Oeste 0 -- -- 44
2019-09-23 17:00:00 22 12 Noroeste 22 Noroeste 0 -- -- 43
2019-09-23 16:00:00 21.1 9 Sudoeste 24 Sudoeste 0 -- -- 43
2019-09-23 15:00:00 21.3 14 Sudoeste 24 Oeste 0 -- -- 41
2019-09-23 14:00:00 19.9 10 Sudoeste 24 Oeste 0 -- -- 44
2019-09-23 13:00:00 17.9 6 Noroeste 17 Noroeste 0 -- -- 53
2019-09-23 12:00:00 16.5 6 Noroeste 15 Oeste 0 -- -- 56
2019-09-23 11:00:00 15.1 7 Noroeste 12 Noroeste 0 -- -- 63
2019-09-23 10:00:00 11.6 0 Calma 5 Sudeste 0 -- -- 80
2019-09-23 09:00:00 6.7 0 Calma 3 Norte 0 -- -- 98
2019-09-23 08:00:00 4.4 0 Calma 3 Este 0 -- -- 97
2019-09-23 07:00:00 4.6 0 Calma 3 Este 0 -- -- 97
2019-09-23 06:00:00 4.9 0 Calma 4 Nordeste 0 -- -- 97
2019-09-23 05:00:00 5.4 2 Este 5 Nordeste 0 -- -- 95
2019-09-23 04:00:00 6.6 3 Nordeste 4 Nordeste 0 -- -- 95
2019-09-23 03:00:00 7.3 0 Calma 5 Este 0 -- -- 93
2019-09-23 02:00:00 8 3 Este 5 Nordeste 0 -- -- 91
2019-09-23 01:00:00 7.8 2 Sudeste 4 Norte 0 -- -- 90
2019-09-23 00:00:00 8.9 3 Norte 6 Oeste 0 -- -- 86
2019-09-22 23:00:00 10.3 3 Oeste 6 Oeste 0 -- -- 81
2019-09-22 22:00:00 11.2 0 Calma 3 Este 0 -- -- 80
2019-09-22 21:00:00 12.7 2 Nordeste 19 Oeste 0 -- -- 69
2019-09-22 20:00:00 16 14 Oeste 30 Oeste 0 -- -- 55
2019-09-22 19:00:00 17.9 19 Oeste 35 Noroeste 0 -- -- 47
2019-09-22 18:00:00 19.7 19 Oeste 44 Oeste 0 -- -- 43
2019-09-22 17:00:00 19.4 23 Oeste 36 Oeste 0 -- -- 46
2019-09-22 16:00:00 18.7 20 Oeste 35 Oeste 0 -- -- 51
2019-09-22 15:00:00 18.4 23 Oeste 36 Noroeste 0 -- -- 52
2019-09-22 14:00:00 16 15 Noroeste 28 Noroeste 0 -- -- 66
2019-09-22 13:00:00 15.1 17 Noroeste 26 Noroeste 0 -- -- 70
2019-09-22 12:00:00 13.7 12 Noroeste 30 Noroeste 0 -- -- 78
2019-09-22 11:00:00 12.6 18 Oeste 29 Oeste 0.2 -- -- 84
2019-09-22 10:00:00 12 15 Oeste 29 Oeste 0 -- -- 92
2019-09-22 09:00:00 12 20 Oeste 34 Oeste 0 -- -- 87
2019-09-22 08:00:00 12.3 21 Oeste 37 Oeste 0 -- -- 91
2019-09-22 07:00:00 15.4 19 Sudoeste 36 Sudoeste 0 -- -- 85
2019-09-22 06:00:00 15.3 13 Sudoeste 33 Sur 0 -- -- 86
2019-09-22 05:00:00 15.5 19 Sudoeste 31 Sur 0 -- -- 86
2019-09-22 04:00:00 15.5 0 Calma 18 Sur 0 -- -- 85
2019-09-22 03:00:00 15.4 10 Sudoeste 27 Sudoeste 0 -- -- 86
2019-09-22 02:00:00 15.5 10 Sur 26 Sur 0 -- -- 87
2019-09-22 01:00:00 16 8 Sudoeste 22 Sudoeste 0 -- -- 87
2019-09-22 00:00:00 16 5 Sudoeste 9 Sur 0 -- -- 88
2019-09-21 23:00:00 16.2 2 Sur 12 Sudoeste 0 -- -- 87
2019-09-21 22:00:00 16.3 7 Sur 23 Sur 0 -- -- 84
2019-09-21 21:00:00 17.1 12 Sur 26 Sur 0 -- -- 77
2019-09-21 20:00:00 17.8 12 Sudoeste 25 Sur 0 -- -- 71
2019-09-21 19:00:00 18.5 12 Sudoeste 30 Sudoeste 0 -- -- 68
2019-09-21 18:00:00 18.6 22 Sudoeste 38 Sudoeste 0 -- -- 66
2019-09-21 17:00:00 19 21 Sudoeste 38 Sudoeste 0 -- -- 65
2019-09-21 16:00:00 20.2 25 Sudoeste 42 Sudoeste 0 -- -- 58
2019-09-21 15:00:00 20.7 22 Sudoeste 42 Sur 0 -- -- 55
2019-09-21 14:00:00 19.3 22 Sudoeste 37 Sudoeste 0 -- -- 58
2019-09-21 13:00:00 19.5 22 Sudoeste 36 Sudoeste 0 -- -- 59
2019-09-21 12:00:00 19.5 13 Sur 35 Sudoeste 0 -- -- 60
2019-09-21 11:00:00 17.8 17 Sudoeste 28 Sur 0 -- -- 69
2019-09-21 10:00:00 16.9 12 Sur 23 Sudoeste 0 -- -- 76
2019-09-21 09:00:00 14.5 5 Sur 16 Sur 0 -- -- 84
2019-09-21 08:00:00 13.8 8 Sur 15 Sudeste 0 -- -- 85
2019-09-21 07:00:00 14.5 3 Sur 13 Sur 0 -- -- 83
2019-09-21 06:00:00 14.7 7 Sudeste 13 Sur 0 -- -- 81
2019-09-21 05:00:00 15.5 5 Sudeste 14 Sudeste 0 -- -- 78
2019-09-21 04:00:00 14 8 Este 12 Sudeste 0 -- -- 82
2019-09-21 03:00:00 13.1 3 Este 8 Nordeste 0 -- -- 88
2019-09-21 02:00:00 13.5 5 Este 7 Este 0 -- -- 85
2019-09-21 01:00:00 14.7 3 Oeste 21 Oeste 0 -- -- 75
2019-09-21 00:00:00 15.7 5 Sudeste 12 Este 0 -- -- 86
2019-09-20 23:00:00 15.9 9 Este 18 Sudeste 0 -- -- 84
2019-09-20 22:00:00 16.5 14 Este 28 Este 0 -- -- 79
2019-09-20 21:00:00 17.9 12 Este 20 Este 0 -- -- 75
2019-09-20 20:00:00 18.8 14 Sudeste 26 Sudeste 0 -- -- 71
2019-09-20 19:00:00 20.3 15 Sudeste 31 Este 0 -- -- 62
2019-09-20 18:00:00 21.5 19 Este 37 Este 0.2 -- -- 60
2019-09-20 17:00:00 22.5 8 Sudeste 22 Sudeste 0 -- -- 58
2019-09-20 16:00:00 23.8 12 Este 24 Este 0 -- -- 51
2019-09-20 15:00:00 24.1 10 Sudeste 25 Este 0 -- -- 52
2019-09-20 14:00:00 23.8 14 Este 26 Este 0 -- -- 55
2019-09-20 13:00:00 22.4 13 Este 27 Sudeste 0 -- -- 59
2019-09-20 12:00:00 21.1 13 Sudeste 24 Sudeste 0 -- -- 63
2019-09-20 11:00:00 18.3 12 Este 19 Sudeste 0 -- -- 75
2019-09-20 10:00:00 16 6 Este 10 Este 0 -- -- 87
2019-09-20 09:00:00 12.7 0 Calma 5 Este 0 -- -- 98
2019-09-20 08:00:00 11.2 0 Calma 5 Este 0 -- -- 98
2019-09-20 07:00:00 10.8 0 Calma 2 Nordeste 0 -- -- 98
2019-09-20 06:00:00 11.5 0 Calma 3 Sudeste 0 -- -- 97
2019-09-20 05:00:00 11.3 0 Calma 5 Sudeste 0 -- -- 96
2019-09-20 04:00:00 12.1 3 Sudeste 4 Este 0 -- -- 95
2019-09-20 03:00:00 13 3 Sudeste 8 Nordeste 0 -- -- 93
2019-09-20 02:00:00 14.5 2 Este 8 Sudeste 0 -- -- 88
2019-09-20 01:00:00 14.8 2 Este 17 Sudeste 0 -- -- 85
2019-09-20 00:00:00 16.5 11 Este 16 Este 0 -- -- 79
2019-09-19 23:00:00 16.8 7 Sudeste 18 Este 0 -- -- 80
2019-09-19 22:00:00 18 6 Sudeste 13 Sudeste 0 -- -- 72
2019-09-19 21:00:00 16.4 0 Calma 6 Este 0 -- -- 82
2019-09-19 20:00:00 19.5 0 Calma 7 Oeste 0 -- -- 66
2019-09-19 19:00:00 20.8 4 Oeste 10 Oeste 0 -- -- 65
2019-09-19 18:00:00 21.1 9 Oeste 14 Oeste 0 -- -- 62
2019-09-19 17:00:00 21.2 4 Oeste 23 Noroeste 0 -- -- 62
2019-09-19 16:00:00 22 10 Norte 25 Oeste 0 -- -- 57
2019-09-19 15:00:00 25.3 9 Este 18 Este 0 -- -- 48
2019-09-19 14:00:00 25.2 5 Este 15 Este 0 -- -- 51
2019-09-19 13:00:00 22.7 6 Sudeste 19 Este 0 -- -- 58
2019-09-19 12:00:00 20.1 11 Sudeste 19 Este 0 -- -- 65
2019-09-19 11:00:00 18.6 12 Sudeste 21 Este 0 -- -- 72
2019-09-19 10:00:00 15.9 0 Calma 4 Noroeste 0 -- -- 88
2019-09-19 09:00:00 12.3 0 Calma 3 Este 0 -- -- 99
2019-09-19 08:00:00 10.6 0 Calma 2 Oeste 0 -- -- 98
2019-09-19 07:00:00 11.2 0 Calma 4 Este 0 -- -- 98
2019-09-19 06:00:00 11.6 4 Este 5 Este 0 -- -- 98
2019-09-19 05:00:00 11.4 0 Calma 4 Este 0 -- -- 97
2019-09-19 04:00:00 12 0 Calma 0 Calma 0 -- -- 98
2019-09-19 03:00:00 12.3 0 Calma 4 Nordeste 0 -- -- 96
2019-09-19 02:00:00 13.1 0 Calma 4 Nordeste 0 -- -- 95
2019-09-19 01:00:00 14.5 0 Calma 5 Este 0 -- -- 91
2019-09-19 00:00:00 15.4 3 Este 6 Este 0 -- -- 89
2019-09-18 23:00:00 15.9 3 Sudeste 7 Sudeste 0 -- -- 86
2019-09-18 22:00:00 16 3 Este 13 Sudeste 0 -- -- 85
2019-09-18 21:00:00 18.4 7 Sur 13 Sur 0 -- -- 78
2019-09-18 20:00:00 20.2 9 Nordeste 14 Nordeste 0 -- -- 62
2019-09-18 19:00:00 21.8 6 Sudoeste 12 Noroeste 0 -- -- 53
2019-09-18 18:00:00 24.8 5 Sur 13 Sur 0 -- -- 43
2019-09-18 17:00:00 24 6 Oeste 14 Oeste 0 -- -- 48
2019-09-18 16:00:00 24.1 5 Sudoeste 13 Oeste 0 -- -- 50
2019-09-18 15:00:00 -- -- -- -- -- -- -- -- --
2019-09-18 14:00:00 19.2 6 Sudeste 17 Sudeste 0 -- -- 69
2019-09-18 13:00:00 18.2 6 Sudeste 10 Este 0 -- -- 74
2019-09-18 12:00:00 16.9 0 Calma 5 Oeste 0 -- -- 85
2019-09-18 11:00:00 14.2 4 Oeste 11 Oeste 0 -- -- 94
2019-09-18 10:00:00 13.5 6 Oeste 9 Oeste 0 -- -- 96
2019-09-18 09:00:00 11.6 2 Nordeste 10 Este 0 -- -- 98
2019-09-18 08:00:00 10 5 Este 6 Este 0.2 -- -- 99
2019-09-18 07:00:00 9.6 4 Nordeste 6 Nordeste 0 -- -- 98
2019-09-18 06:00:00 10 2 Sudeste 10 Norte 0 -- -- 98
2019-09-18 05:00:00 10.6 3 Norte 10 Norte 0 -- -- 97
2019-09-18 04:00:00 12 3 Sur 11 Sudoeste 0 -- -- 97
2019-09-18 03:00:00 12.6 6 Oeste 10 Noroeste 0 -- -- 96
2019-09-18 02:00:00 13.8 7 Noroeste 26 Noroeste 0.2 -- -- 93
2019-09-18 01:00:00 14.1 19 Oeste 30 Noroeste 4.6 -- -- 92
2019-09-18 00:00:00 14.5 15 Sur 25 Sur 2 -- -- 93
2019-09-17 23:00:00 14.3 17 Sur 50 Sur 2 -- -- 87
2019-09-17 22:00:00 18.6 31 Sur 55 Sur 0 -- -- 65
2019-09-17 21:00:00 19.7 5 Este 8 Nordeste 0 -- -- 61
2019-09-15 18:00:00 -- -- -- -- -- -- -- -- --
2019-09-15 17:00:00 19.2 13 Nordeste 28 Nordeste 0 -- -- 67
2019-09-15 16:00:00 20.5 15 Nordeste 31 Nordeste 0 -- -- 60
2019-09-15 15:00:00 21.7 19 Este 30 Este 0 -- -- 59
2019-09-15 14:00:00 19.1 19 Este 33 Este 0.2 -- -- 73
2019-09-15 13:00:00 12.8 18 Nordeste 26 Sur 0.8 -- -- 88
2019-09-15 12:00:00 13.8 21 Nordeste 32 Nordeste 0.6 -- -- 80
2019-09-15 11:00:00 17.9 20 Este 36 Sudeste 0 -- -- 49
2019-09-15 10:00:00 18 26 Este 40 Este 0 -- -- 47
2019-09-15 09:00:00 16.7 21 Este 35 Este 0 -- -- 51
2019-09-15 08:00:00 16.3 16 Este 26 Este 0 -- -- 52
2019-09-15 07:00:00 15.3 11 Este 21 Este 0 -- -- 58
2019-09-15 06:00:00 16.3 12 Este 21 Este 0 -- -- 55
2019-09-15 05:00:00 16.1 10 Este 25 Este 0 -- -- 51
2019-09-15 04:00:00 17.1 14 Este 28 Este 0 -- -- 52
2019-09-15 03:00:00 18.2 18 Este 31 Este 0 -- -- 50
2019-09-15 02:00:00 16.1 4 Sur 11 Este 0 -- -- 58
2019-09-15 01:00:00 15.5 9 Este 18 Este 0 -- -- 59
2019-09-15 00:00:00 16.2 11 Este 22 Este 0 -- -- 61